Time;durP1;ratioP1;P1;durP2;ratioP2;P2;SDS_P1;SDS_P2;PMS_P1;PMS_P2;Temp;Humidity;BMP_temperature;BMP_pressure;BME280_temperature;BME280_humidity;BME280_pressure;Samples;Min_cycle;Max_cycle;Signal;HPM_P1;HPM_P2
2023/07/10 00:01:05;;;;;;;6.95;5.32;;;25.40;48.20;;;;;;5004496;28;20034;-65
2023/07/10 00:03:31;;;;;;;9.13;5.13;;;25.50;47.80;;;;;;4991263;28;20040;-65
2023/07/10 00:05:58;;;;;;;6.40;5.25;;;25.50;48.00;;;;;;4997692;28;20404;-65
2023/07/10 00:08:24;;;;;;;8.90;5.22;;;25.50;47.90;;;;;;4998238;28;20034;-65
2023/07/10 00:10:50;;;;;;;7.13;4.95;;;25.50;47.80;;;;;;4995704;28;20048;-66
2023/07/10 00:13:21;;;;;;;6.38;4.90;;;25.50;47.80;;;;;;5006459;28;20128;-63
2023/07/10 00:15:47;;;;;;;8.00;5.22;;;25.40;47.80;;;;;;4988279;28;20407;-64
2023/07/10 00:18:16;;;;;;;8.15;5.43;;;25.50;47.70;;;;;;5020989;28;20071;-65
2023/07/10 00:20:45;;;;;;;7.22;5.35;;;25.50;47.90;;;;;;5003847;28;20068;-63
2023/07/10 00:23:10;;;;;;;6.55;5.43;;;25.50;47.80;;;;;;4995305;28;20035;-65
2023/07/10 00:25:36;;;;;;;6.07;4.97;;;25.40;47.30;;;;;;4995823;28;20060;-61
2023/07/10 00:28:02;;;;;;;7.18;5.53;;;25.40;47.40;;;;;;4999862;28;20030;-62
2023/07/10 00:30:27;;;;;;;6.70;4.70;;;25.40;47.30;;;;;;4993139;28;20504;-64
2023/07/10 00:32:54;;;;;;;6.07;5.47;;;25.40;47.20;;;;;;4995445;28;20084;-63
2023/07/10 00:35:27;;;;;;;8.10;5.50;;;25.40;47.30;;;;;;4999567;28;20556;-65
2023/07/10 00:38:01;;;;;;;7.15;5.15;;;25.40;47.40;;;;;;5004252;28;20397;-64
2023/07/10 00:40:34;;;;;;;6.90;5.28;;;25.40;47.50;;;;;;5003955;28;20030;-62
2023/07/10 00:43:04;;;;;;;6.88;5.50;;;25.40;47.70;;;;;;5000740;28;20034;-65
2023/07/10 00:45:30;;;;;;;8.23;5.57;;;25.40;47.80;;;;;;5001984;28;20041;-64
2023/07/10 00:48:10;;;;;;;8.57;5.90;;;25.40;47.80;;;;;;4995332;28;20132;-62
2023/07/10 00:50:41;;;;;;;7.25;5.28;;;25.40;47.80;;;;;;5000563;28;20042;-66
2023/07/10 00:53:16;;;;;;;6.22;5.15;;;25.40;47.70;;;;;;4993779;28;20034;-65
2023/07/10 00:55:43;;;;;;;;;;;25.40;47.80;;;;;;4988127;28;20038;-65
2023/07/10 00:58:32;;;;;;;6.43;5.22;;;25.40;47.80;;;;;;4995176;28;20315;-61
2023/07/10 01:01:00;;;;;;;9.25;5.38;;;25.40;48.00;;;;;;4996500;28;20042;-65
2023/07/10 01:03:26;;;;;;;7.00;5.20;;;25.40;48.00;;;;;;5004166;28;20034;-65
2023/07/10 01:05:51;;;;;;;5.95;5.35;;;25.40;48.00;;;;;;5000341;28;20037;-65
2023/07/10 01:08:17;;;;;;;6.63;4.88;;;25.40;48.00;;;;;;4993101;28;20393;-65
2023/07/10 01:10:42;;;;;;;6.63;5.45;;;25.40;48.20;;;;;;5002078;28;20455;-66
2023/07/10 01:13:09;;;;;;;5.32;4.82;;;25.40;48.30;;;;;;4997834;28;20029;-65
2023/07/10 01:15:35;;;;;;;5.90;5.22;;;25.40;48.40;;;;;;4994824;28;20026;-65
2023/07/10 01:18:02;;;;;;;6.25;4.88;;;25.40;48.40;;;;;;4994943;28;20085;-65
2023/07/10 01:20:40;;;;;;;8.75;5.70;;;25.40;48.30;;;;;;4995164;28;20137;-63
2023/07/10 01:23:06;;;;;;;6.10;5.15;;;25.40;47.90;;;;;;5001950;28;20134;-65
2023/07/10 01:25:38;;;;;;;7.60;5.93;;;25.30;47.50;;;;;;4998033;28;20569;-65
2023/07/10 01:28:09;;;;;;;7.60;5.70;;;25.30;47.40;;;;;;5001898;28;20493;-66
2023/07/10 01:30:37;;;;;;;10.68;6.40;;;25.30;47.10;;;;;;4999861;28;20088;-65
2023/07/10 01:33:04;;;;;;;9.48;5.53;;;25.30;47.20;;;;;;5000715;28;20624;-65
2023/07/10 01:35:31;;;;;;;7.88;6.10;;;25.30;47.30;;;;;;5005679;28;20539;-65
2023/07/10 01:37:57;;;;;;;6.13;5.53;;;25.30;47.40;;;;;;5000764;28;20036;-66
2023/07/10 01:40:35;;;;;;;7.78;5.57;;;25.30;47.70;;;;;;5001409;28;20038;-66
2023/07/10 01:43:00;;;;;;;7.70;5.30;;;25.30;47.90;;;;;;4997574;28;20142;-65
2023/07/10 01:45:27;;;;;;;6.93;5.55;;;25.30;48.10;;;;;;4998841;28;20125;-65
2023/07/10 01:47:54;;;;;;;6.15;5.30;;;25.30;48.30;;;;;;4999789;28;20515;-64
2023/07/10 01:50:20;;;;;;;8.77;5.97;;;25.30;48.50;;;;;;4997517;28;20035;-65
2023/07/10 01:52:45;;;;;;;6.65;5.10;;;25.30;48.70;;;;;;4995069;28;20054;-66
2023/07/10 01:55:14;;;;;;;6.32;5.70;;;25.30;48.90;;;;;;4997520;28;20033;-65
2023/07/10 01:57:40;;;;;;;7.68;5.70;;;25.30;49.10;;;;;;5003981;28;20034;-65
2023/07/10 02:00:06;;;;;;;9.63;5.07;;;25.30;49.40;;;;;;5002626;28;20491;-65
2023/07/10 02:02:31;;;;;;;7.57;6.15;;;25.30;49.70;;;;;;5003450;28;20109;-65
2023/07/10 02:04:57;;;;;;;8.90;6.15;;;25.30;49.90;;;;;;4998806;28;20055;-65
2023/07/10 02:07:22;;;;;;;8.65;5.72;;;25.30;50.10;;;;;;5007566;28;20401;-65
2023/07/10 02:09:48;;;;;;;6.30;5.22;;;25.30;50.40;;;;;;5006148;28;20113;-65
2023/07/10 02:12:13;;;;;;;7.82;5.60;;;25.30;50.50;;;;;;4999263;28;21167;-66
2023/07/10 02:14:40;;;;;;;7.32;5.50;;;25.20;50.60;;;;;;4997742;28;20042;-65
2023/07/10 02:17:06;;;;;;;7.28;5.88;;;25.20;50.90;;;;;;5007022;28;20564;-65
2023/07/10 02:19:32;;;;;;;8.40;6.30;;;25.20;51.10;;;;;;5005360;28;20121;-65
2023/07/10 02:21:57;;;;;;;8.50;6.40;;;25.20;51.40;;;;;;5000963;28;20030;-66
2023/07/10 02:24:23;;;;;;;7.43;4.88;;;25.20;51.50;;;;;;5007107;28;20087;-65
2023/07/10 02:26:48;;;;;;;7.40;5.57;;;25.20;51.70;;;;;;5002267;28;20599;-65
2023/07/10 02:29:14;;;;;;;6.43;5.65;;;25.20;51.80;;;;;;5000204;28;20106;-65
2023/07/10 02:31:39;;;;;;;7.97;5.65;;;25.10;51.90;;;;;;4996024;28;20069;-65
2023/07/10 02:34:04;;;;;;;8.35;6.28;;;25.20;52.10;;;;;;4999361;28;20035;-65
2023/07/10 02:36:30;;;;;;;8.10;5.50;;;25.20;52.30;;;;;;4994960;28;20517;-65
2023/07/10 02:38:56;;;;;;;6.95;5.82;;;25.10;52.30;;;;;;4996747;28;20022;-66
2023/07/10 02:41:21;;;;;;;6.80;5.28;;;25.10;52.30;;;;;;4993512;28;20488;-66
2023/07/10 02:43:47;;;;;;;6.72;5.53;;;25.10;52.30;;;;;;4994112;28;20053;-63
2023/07/10 02:46:13;;;;;;;6.38;5.78;;;25.10;52.30;;;;;;4996816;28;20042;-64
2023/07/10 02:48:38;;;;;;;7.53;5.55;;;25.10;52.20;;;;;;4998211;28;20045;-65
2023/07/10 02:51:04;;;;;;;8.57;5.43;;;25.20;52.20;;;;;;5004275;28;20541;-66
2023/07/10 02:53:30;;;;;;;5.78;5.10;;;25.10;52.00;;;;;;4999374;28;20039;-65
2023/07/10 02:55:55;;;;;;;9.10;5.57;;;25.20;51.90;;;;;;4994057;28;20045;-65
2023/07/10 02:58:21;;;;;;;8.65;6.32;;;25.20;51.70;;;;;;4994313;28;20026;-66
2023/07/10 03:00:58;;;;;;;11.00;6.10;;;25.20;51.50;;;;;;4998746;28;20554;-65
2023/07/10 03:03:24;;;;;;;6.57;5.57;;;25.10;51.30;;;;;;4997699;28;20172;-65
2023/07/10 03:05:54;;;;;;;7.43;5.75;;;25.10;51.10;;;;;;4993235;28;20044;-63
2023/07/10 03:08:20;;;;;;;7.93;6.00;;;25.10;50.80;;;;;;4994441;28;20034;-65
2023/07/10 03:10:45;;;;;;;7.95;6.15;;;25.10;50.60;;;;;;4997247;28;20036;-66
2023/07/10 03:13:11;;;;;;;7.10;5.57;;;25.10;50.50;;;;;;5001628;28;20436;-65
2023/07/10 03:15:36;;;;;;;6.68;5.65;;;25.10;50.40;;;;;;5002157;28;20169;-66
2023/07/10 03:18:02;;;;;;;7.63;5.28;;;25.10;50.30;;;;;;4997483;28;20425;-64
2023/07/10 03:20:27;;;;;;;7.18;5.40;;;25.10;50.20;;;;;;5002408;28;20092;-63
2023/07/10 03:22:53;;;;;;;9.05;5.50;;;25.10;50.10;;;;;;5003626;28;20030;-65
2023/07/10 03:25:18;;;;;;;10.07;6.20;;;25.10;50.10;;;;;;4998888;28;20053;-65
2023/07/10 03:27:47;;;;;;;7.65;5.75;;;25.10;50.10;;;;;;5002760;28;20038;-63
2023/07/10 03:30:13;;;;;;;7.10;5.95;;;25.10;50.10;;;;;;5001599;28;20041;-66
2023/07/10 03:32:38;;;;;;;6.40;5.78;;;25.10;50.00;;;;;;4999118;28;20026;-65
2023/07/10 03:35:04;;;;;;;9.20;5.88;;;25.10;50.00;;;;;;4993039;28;20038;-65
2023/07/10 03:37:29;;;;;;;6.20;5.60;;;25.10;50.00;;;;;;5002461;28;20433;-65
2023/07/10 03:39:55;;;;;;;7.85;5.60;;;25.10;50.00;;;;;;5002558;28;20149;-67
2023/07/10 03:42:20;;;;;;;5.78;4.97;;;25.10;50.00;;;;;;4999904;28;20080;-65
2023/07/10 03:44:46;;;;;;;6.70;6.00;;;25.10;50.00;;;;;;4993250;28;20496;-65
2023/07/10 03:47:11;;;;;;;7.15;5.70;;;25.10;50.00;;;;;;4997924;28;20042;-65
2023/07/10 03:49:37;;;;;;;7.35;5.80;;;25.10;50.00;;;;;;4993167;28;20039;-65
2023/07/10 03:52:04;;;;;;;8.20;6.03;;;25.10;49.90;;;;;;4999307;28;20084;-64
2023/07/10 03:54:33;;;;;;;6.00;5.40;;;25.10;50.00;;;;;;5000814;28;20034;-65
2023/07/10 03:56:58;;;;;;;8.48;5.80;;;25.10;50.10;;;;;;4999377;28;20113;-65
2023/07/10 03:59:24;;;;;;;7.70;5.97;;;25.10;50.10;;;;;;5001226;28;20105;-64
2023/07/10 04:01:49;;;;;;;7.15;5.43;;;25.10;50.20;;;;;;4998384;28;20058;-65
2023/07/10 04:04:14;;;;;;;9.07;6.43;;;25.10;50.20;;;;;;4996757;28;21008;-65
2023/07/10 04:06:41;;;;;;;8.85;5.40;;;25.10;50.20;;;;;;4992993;28;20057;-65
2023/07/10 04:09:06;;;;;;;6.50;5.32;;;25.10;50.20;;;;;;4996750;28;20519;-63
2023/07/10 04:11:32;;;;;;;8.13;5.85;;;25.10;50.30;;;;;;5002381;28;20030;-62
2023/07/10 04:13:57;;;;;;;6.07;5.28;;;25.10;50.40;;;;;;4997347;28;20485;-65
2023/07/10 04:16:25;;;;;;;7.20;6.43;;;25.10;50.30;;;;;;4995499;28;20505;-65
2023/07/10 04:18:52;;;;;;;6.38;5.70;;;25.10;50.40;;;;;;5002407;28;20449;-65
2023/07/10 04:21:24;;;;;;;6.50;5.70;;;25.10;50.30;;;;;;4993818;28;20109;-65
2023/07/10 04:23:50;;;;;;;6.90;5.82;;;25.10;50.10;;;;;;4997443;28;20023;-64
2023/07/10 04:26:20;;;;;;;6.47;4.90;;;25.10;50.10;;;;;;4994066;28;20084;-65
2023/07/10 04:28:47;;;;;;;6.18;5.45;;;25.10;50.10;;;;;;5002052;28;20122;-65
2023/07/10 04:31:13;;;;;;;8.70;6.00;;;25.10;50.00;;;;;;4991773;28;20543;-65
2023/07/10 04:33:39;;;;;;;7.85;5.57;;;25.10;50.00;;;;;;4991174;28;20044;-65
2023/07/10 04:36:04;;;;;;;7.15;5.22;;;25.10;50.00;;;;;;4999340;28;20113;-64
2023/07/10 04:38:30;;;;;;;6.70;6.00;;;25.10;50.00;;;;;;4997902;28;20401;-65
2023/07/10 04:41:00;;;;;;;6.72;5.50;;;25.10;50.00;;;;;;4995710;28;20132;-64
2023/07/10 04:43:28;;;;;;;7.45;5.60;;;25.10;50.00;;;;;;4991031;28;20126;-64
2023/07/10 04:45:55;;;;;;;7.78;5.68;;;25.10;50.00;;;;;;5003005;28;20042;-65
2023/07/10 04:48:21;;;;;;;7.78;5.53;;;25.10;50.00;;;;;;4999524;28;20038;-65
2023/07/10 04:50:48;;;;;;;7.40;5.53;;;25.10;50.00;;;;;;5004404;28;20087;-62
2023/07/10 04:53:14;;;;;;;6.57;5.28;;;25.10;50.00;;;;;;5004693;28;20053;-65
2023/07/10 04:55:39;;;;;;;7.20;5.88;;;25.10;50.00;;;;;;4996779;28;20088;-65
2023/07/10 04:58:05;;;;;;;6.22;5.50;;;25.10;50.00;;;;;;4995222;28;20445;-65
2023/07/10 05:00:31;;;;;;;5.90;5.32;;;25.10;49.90;;;;;;5001114;28;20400;-65
2023/07/10 05:02:56;;;;;;;7.07;5.80;;;25.10;49.80;;;;;;5000317;28;20516;-66
2023/07/10 05:05:22;;;;;;;6.10;5.50;;;25.10;49.80;;;;;;4999087;28;20034;-65
2023/07/10 05:07:47;;;;;;;7.15;5.95;;;25.10;49.90;;;;;;4998385;28;20169;-65
2023/07/10 05:10:13;;;;;;;6.68;5.82;;;25.10;50.00;;;;;;4994101;28;20027;-66
2023/07/10 05:12:38;;;;;;;7.32;5.60;;;25.10;50.00;;;;;;4996405;28;20504;-65
2023/07/10 05:15:04;;;;;;;8.13;6.45;;;25.10;50.70;;;;;;4994741;28;20030;-65
2023/07/10 05:17:30;;;;;;;8.43;5.55;;;25.10;50.10;;;;;;5000942;28;20582;-60
2023/07/10 05:19:55;;;;;;;6.45;5.68;;;25.10;50.10;;;;;;4991291;28;20038;-65
2023/07/10 05:22:21;;;;;;;8.93;5.53;;;25.10;50.10;;;;;;4995340;28;20046;-64
2023/07/10 05:24:46;;;;;;;6.63;6.00;;;25.10;50.20;;;;;;4991174;28;20034;-65
2023/07/10 05:27:12;;;;;;;6.57;5.65;;;25.10;50.40;;;;;;5000565;28;20382;-65
2023/07/10 05:29:37;;;;;;;7.80;5.70;;;25.10;50.70;;;;;;5001615;28;20455;-65
2023/07/10 05:32:03;;;;;;;6.30;5.70;;;25.10;50.90;;;;;;5000906;28;20117;-65
2023/07/10 05:34:28;;;;;;;7.53;5.60;;;25.10;51.20;;;;;;4999312;28;20034;-64
2023/07/10 05:36:54;;;;;;;5.88;5.20;;;25.10;51.50;;;;;;4997769;28;20038;-65
2023/07/10 05:39:19;;;;;;;6.13;5.40;;;25.20;51.80;;;;;;5002011;28;20065;-65
2023/07/10 05:41:45;;;;;;;6.13;5.50;;;25.20;52.00;;;;;;5000932;28;20068;-65
2023/07/10 05:44:10;;;;;;;8.05;5.55;;;25.20;52.20;;;;;;5001421;28;20034;-65
2023/07/10 05:46:36;;;;;;;5.93;5.07;;;25.20;52.40;;;;;;5002292;28;20042;-65
2023/07/10 05:49:02;;;;;;;6.18;5.57;;;25.20;52.40;;;;;;5002672;28;20133;-65
2023/07/10 05:51:27;;;;;;;7.05;5.93;;;25.10;52.50;;;;;;5002514;28;20129;-63
2023/07/10 05:53:53;;;;;;;6.70;5.32;;;25.10;52.80;;;;;;4995782;28;20057;-65
2023/07/10 05:56:19;;;;;;;6.05;5.45;;;25.20;53.10;;;;;;5001449;28;20025;-65
2023/07/10 05:58:45;;;;;;;7.28;5.65;;;25.20;53.30;;;;;;5005909;28;20030;-65
2023/07/10 06:01:11;;;;;;;6.93;5.85;;;25.20;53.40;;;;;;4997361;28;20049;-63
2023/07/10 06:03:36;;;;;;;7.70;5.50;;;25.10;53.60;;;;;;4999799;28;20115;-65
2023/07/10 06:06:04;;;;;;;6.30;5.65;;;25.20;54.00;;;;;;4999917;28;20042;-65
2023/07/10 06:08:31;;;;;;;6.20;5.47;;;25.20;54.20;;;;;;4991480;28;20121;-65
2023/07/10 06:10:57;;;;;;;6.65;5.53;;;25.20;54.20;;;;;;4998449;28;20041;-65
2023/07/10 06:13:23;;;;;;;6.55;5.90;;;25.20;54.30;;;;;;5001147;28;20041;-64
2023/07/10 06:15:51;;;;;;;8.68;5.78;;;25.20;54.50;;;;;;4997672;28;20034;-62
2023/07/10 06:18:17;;;;;;;8.38;6.55;;;25.20;54.40;;;;;;4996151;28;20042;-65
2023/07/10 06:20:42;;;;;;;10.30;5.32;;;25.30;54.30;;;;;;5000375;28;20026;-65
2023/07/10 06:23:08;;;;;;;6.05;5.43;;;25.30;54.30;;;;;;5002321;28;20034;-64
2023/07/10 06:25:33;;;;;;;7.00;5.60;;;25.30;54.10;;;;;;4991226;28;20039;-65
2023/07/10 06:27:59;;;;;;;6.80;5.78;;;25.30;53.70;;;;;;4996894;28;20489;-65
2023/07/10 06:30:24;;;;;;;6.35;5.63;;;25.30;53.50;;;;;;5007350;28;20022;-65
2023/07/10 06:32:50;;;;;;;6.18;5.47;;;25.30;53.40;;;;;;4989194;28;20413;-65
2023/07/10 06:35:16;;;;;;;5.97;5.38;;;25.30;53.30;;;;;;4997082;28;20402;-62
2023/07/10 06:37:43;;;;;;;9.23;5.53;;;25.40;53.30;;;;;;4995672;28;20041;-64
2023/07/10 06:40:11;;;;;;;7.72;5.28;;;25.40;53.50;;;;;;5004094;28;20053;-64
2023/07/10 06:42:37;;;;;;;5.70;5.00;;;25.30;52.90;;;;;;5003216;28;20118;-65
2023/07/10 06:45:04;;;;;;;6.85;5.63;;;25.40;52.90;;;;;;4996978;28;20049;-62
2023/07/10 06:47:31;;;;;;;7.10;5.93;;;25.40;52.90;;;;;;4999583;28;20031;-65
2023/07/10 06:49:57;;;;;;;7.55;5.88;;;25.40;52.80;;;;;;5002069;28;20057;-66
2023/07/10 06:52:22;;;;;;;5.93;5.03;;;25.40;52.70;;;;;;4999426;28;20041;-65
2023/07/10 06:54:48;;;;;;;6.55;5.68;;;25.40;52.70;;;;;;5001298;28;20400;-65
2023/07/10 06:57:14;;;;;;;8.43;5.35;;;25.40;52.60;;;;;;4997156;28;20516;-63
2023/07/10 06:59:39;;;;;;;6.38;5.07;;;25.40;52.50;;;;;;5000847;28;20045;-65
2023/07/10 07:02:05;;;;;;;5.68;4.93;;;25.40;52.50;;;;;;4998800;28;20023;-65
2023/07/10 07:04:31;;;;;;;5.85;5.13;;;25.50;52.40;;;;;;4997625;28;20065;-65
2023/07/10 07:06:57;;;;;;;6.07;5.40;;;25.50;52.40;;;;;;5004792;28;20117;-67
2023/07/10 07:09:22;;;;;;;6.40;4.97;;;25.50;52.30;;;;;;4999652;28;20022;-62
2023/07/10 07:11:48;;;;;;;7.57;5.40;;;25.50;52.30;;;;;;4997774;28;20022;-63
2023/07/10 07:14:13;;;;;;;7.28;4.78;;;25.50;52.20;;;;;;4998367;28;20485;-63
2023/07/10 07:16:39;;;;;;;6.90;5.40;;;25.50;52.20;;;;;;4997257;28;20100;-65
2023/07/10 07:19:04;;;;;;;5.32;4.82;;;25.50;52.20;;;;;;5001355;28;20395;-65
2023/07/10 07:21:30;;;;;;;6.50;4.57;;;25.50;52.20;;;;;;4999818;28;20061;-65
2023/07/10 07:23:55;;;;;;;4.93;4.43;;;25.50;52.20;;;;;;4991206;28;20110;-65
2023/07/10 07:26:24;;;;;;;5.30;4.78;;;25.50;52.20;;;;;;5019191;28;20061;-64
2023/07/10 07:28:50;;;;;;;5.82;4.82;;;25.50;52.20;;;;;;4988412;28;20037;-65
2023/07/10 07:31:15;;;;;;;8.55;5.18;;;25.50;52.20;;;;;;4990467;28;20031;-64
2023/07/10 07:33:41;;;;;;;7.57;5.18;;;25.50;52.20;;;;;;4991171;28;20034;-63
2023/07/10 07:36:06;;;;;;;8.32;5.55;;;25.50;52.20;;;;;;4988226;28;20038;-65
2023/07/10 07:38:32;;;;;;;5.90;5.05;;;25.50;52.20;;;;;;4996066;28;20033;-64
2023/07/10 07:40:58;;;;;;;8.82;5.40;;;25.50;52.30;;;;;;4994035;28;20481;-65
2023/07/10 07:43:24;;;;;;;7.03;5.70;;;25.60;52.40;;;;;;4996882;28;20042;-63
2023/07/10 07:45:54;;;;;;;11.10;5.00;;;25.60;52.50;;;;;;4997741;28;20044;-64
2023/07/10 07:48:21;;;;;;;7.35;5.32;;;25.60;52.50;;;;;;4992380;28;20053;-64
2023/07/10 07:51:04;;;;;;;11.10;6.20;;;25.60;52.50;;;;;;4995425;28;20038;-65
2023/07/10 07:53:31;;;;;;;11.68;5.43;;;25.60;52.50;;;;;;4993635;28;20030;-64
2023/07/10 07:55:57;;;;;;;9.75;5.10;;;25.70;52.60;;;;;;4992335;28;20056;-67
2023/07/10 07:58:22;;;;;;;7.28;5.45;;;25.70;52.70;;;;;;5003401;28;20374;-65
2023/07/10 08:00:49;;;;;;;7.50;5.72;;;25.70;52.80;;;;;;4987768;28;20022;-61
2023/07/10 08:03:15;;;;;;;12.48;5.85;;;25.60;52.60;;;;;;4992805;28;20081;-65
2023/07/10 08:05:40;;;;;;;7.50;5.07;;;25.70;52.70;;;;;;4988318;28;20030;-65
2023/07/10 08:08:07;;;;;;;6.72;5.07;;;25.70;52.60;;;;;;4992010;28;20445;-65
2023/07/10 08:10:53;;;;;;;8.00;5.05;;;25.70;52.60;;;;;;4994768;28;20038;-65
2023/07/10 08:13:19;;;;;;;;;;;25.70;52.60;;;;;;4996273;28;20449;-65
2023/07/10 08:15:45;;;;;;;8.48;5.32;;;25.70;52.70;;;;;;4994223;28;20608;-61
2023/07/10 08:18:11;;;;;;;10.38;4.85;;;25.70;52.70;;;;;;4990551;28;20109;-65
2023/07/10 08:20:37;;;;;;;7.90;5.00;;;25.70;52.80;;;;;;4987389;28;20045;-65
2023/07/10 08:23:04;;;;;;;6.30;4.55;;;25.70;52.70;;;;;;5000114;28;20440;-65
2023/07/10 08:25:30;;;;;;;9.00;5.57;;;25.70;52.70;;;;;;4996209;28;20046;-63
2023/07/10 08:27:58;;;;;;;8.32;4.93;;;25.70;52.70;;;;;;4989331;28;20041;-65
2023/07/10 08:30:24;;;;;;;5.68;5.07;;;25.70;52.60;;;;;;4987295;28;20489;-65
2023/07/10 08:32:49;;;;;;;6.65;5.38;;;25.70;52.60;;;;;;4996136;28;20121;-65
2023/07/10 08:35:15;;;;;;;6.57;4.75;;;25.70;52.60;;;;;;4993076;28;20193;-65
2023/07/10 08:37:41;;;;;;;6.72;5.05;;;25.70;52.70;;;;;;4996761;28;20377;-65
2023/07/10 08:40:29;;;;;;;6.50;5.25;;;25.70;52.70;;;;;;4992526;28;20054;-62
2023/07/10 08:42:54;;;;;;;7.22;5.28;;;25.80;52.80;;;;;;4998597;28;20029;-65
2023/07/10 08:45:36;;;;;;;8.50;5.68;;;25.70;52.70;;;;;;5006093;28;20451;-65
2023/07/10 08:48:41;;;;;;;6.70;5.85;;;25.80;52.80;;;;;;4992254;28;20037;-65
2023/07/10 08:51:21;;;;;;;6.32;5.28;;;25.80;52.80;;;;;;4983501;28;20057;-63
2023/07/10 08:54:06;;;;;;;7.53;5.88;;;25.80;52.80;;;;;;4993182;28;20046;-63
2023/07/10 08:57:06;;;;;;;7.03;5.93;;;25.70;52.80;;;;;;5001393;28;20041;-64
2023/07/10 08:59:49;;;;;;;5.53;4.97;;;25.80;52.90;;;;;;4991721;28;20044;-65
2023/07/10 09:02:39;;;;;;;7.10;6.07;;;25.80;52.90;;;;;;5005188;28;20030;-64
2023/07/10 09:05:07;;;;;;;6.40;5.00;;;25.80;52.80;;;;;;4997101;28;20061;-65
2023/07/10 09:07:42;;;;;;;6.57;5.10;;;25.80;52.80;;;;;;5003882;28;20030;-66
2023/07/10 09:10:22;;;;;;;7.10;6.05;;;25.80;52.90;;;;;;5004911;28;20220;-65
2023/07/10 09:12:51;;;;;;;7.65;5.80;;;25.80;52.90;;;;;;4996565;28;20053;-66
2023/07/10 09:15:25;;;;;;;7.25;5.90;;;25.80;52.90;;;;;;5000626;28;20041;-65
2023/07/10 09:18:00;;;;;;;9.02;5.78;;;25.80;52.90;;;;;;4989127;28;20046;-64
2023/07/10 09:20:26;;;;;;;8.02;5.70;;;25.90;53.10;;;;;;4994415;28;20026;-65
2023/07/10 09:23:04;;;;;;;9.65;6.53;;;25.90;53.00;;;;;;4997600;28;20164;-66
2023/07/10 09:25:37;;;;;;;7.90;6.07;;;25.90;53.10;;;;;;4994781;28;20043;-62
2023/07/10 09:28:02;;;;;;;8.07;6.40;;;25.90;53.10;;;;;;4990976;28;20647;-62
2023/07/10 09:30:49;;;;;;;7.22;6.47;;;25.80;53.10;;;;;;5004385;28;20117;-65
2023/07/10 09:33:15;;;;;;;9.38;6.00;;;25.90;53.20;;;;;;4999616;28;20030;-65
2023/07/10 09:35:43;;;;;;;7.68;5.82;;;25.90;53.20;;;;;;4996135;28;20060;-65
2023/07/10 09:38:11;;;;;;;7.68;5.82;;;25.90;53.20;;;;;;4991534;28;20033;-65
2023/07/10 09:40:43;;;;;;;7.72;5.97;;;25.90;53.40;;;;;;4987420;28;20313;-65
2023/07/10 09:43:17;;;;;;;10.10;5.85;;;25.90;53.30;;;;;;4997367;28;20084;-65
2023/07/10 09:45:52;;;;;;;7.03;5.72;;;25.90;53.30;;;;;;4995590;28;20034;-65
2023/07/10 09:48:31;;;;;;;8.43;5.97;;;25.90;53.30;;;;;;5007645;28;20041;-64
2023/07/10 09:51:00;;;;;;;9.48;6.60;;;25.90;53.30;;;;;;4996325;28;20031;-65
2023/07/10 09:53:31;;;;;;;10.27;6.95;;;25.90;53.30;;;;;;5009629;28;20036;-65
2023/07/10 09:55:57;;;;;;;7.78;6.75;;;25.90;53.30;;;;;;5007808;28;20022;-66
2023/07/10 09:58:23;;;;;;;10.30;6.25;;;25.90;53.40;;;;;;5001350;28;20030;-65
2023/07/10 10:00:51;;;;;;;7.43;6.25;;;25.90;53.30;;;;;;5007152;28;20042;-65
2023/07/10 10:03:43;;;;;;;7.32;6.07;;;25.90;53.40;;;;;;5008042;28;20457;-65
2023/07/10 10:06:25;;;;;;;9.20;6.22;;;25.90;53.60;;;;;;4993740;28;20034;-64
2023/07/10 10:08:51;;;;;;;7.43;6.25;;;25.90;53.40;;;;;;4997223;28;20034;-63
2023/07/10 10:11:18;;;;;;;7.82;6.80;;;25.90;53.40;;;;;;5000649;28;20030;-65
2023/07/10 10:13:46;;;;;;;7.68;6.35;;;25.80;53.80;;;;;;4998481;28;20034;-63
2023/07/10 10:16:15;;;;;;;9.35;6.68;;;25.80;54.00;;;;;;5007853;28;20109;-65
2023/07/10 10:18:50;;;;;;;8.07;7.28;;;25.80;54.10;;;;;;5017814;28;20083;-61
2023/07/10 10:21:18;;;;;;;8.63;7.82;;;25.90;54.40;;;;;;5008113;28;20042;-65
2023/07/10 10:23:49;;;;;;;8.85;7.20;;;25.90;54.20;;;;;;5005415;28;20042;-66
2023/07/10 10:26:30;;;;;;;9.50;8.27;;;25.90;54.50;;;;;;4999859;28;20034;-64
2023/07/10 10:29:24;;;;;;;9.40;7.45;;;25.80;54.50;;;;;;4999174;28;20030;-65
2023/07/10 10:31:56;;;;;;;9.25;7.75;;;25.80;54.40;;;;;;5003704;28;20537;-65
2023/07/10 10:34:41;;;;;;;9.48;7.22;;;25.90;54.50;;;;;;5003418;28;20038;-66
2023/07/10 10:37:26;;;;;;;10.77;8.20;;;25.90;54.60;;;;;;4996622;28;20416;-66
2023/07/10 10:39:55;;;;;;;11.13;7.80;;;25.90;55.00;;;;;;5006089;28;20209;-66
2023/07/10 10:42:42;;;;;;;8.68;7.75;;;25.90;55.10;;;;;;5000459;28;20396;-65
2023/07/10 10:45:26;;;;;;;8.88;7.32;;;25.80;55.30;;;;;;5000229;28;20030;-66
2023/07/10 10:48:10;;;;;;;8.95;7.20;;;25.90;55.10;;;;;;5006354;28;20030;-66
2023/07/10 10:51:01;;;;;;;10.05;7.65;;;25.90;54.90;;;;;;4997616;28;20412;-63
2023/07/10 10:53:55;;;;;;;7.82;7.10;;;25.90;54.90;;;;;;4999148;28;20093;-65
2023/07/10 10:56:26;;;;;;;9.55;8.20;;;25.90;55.00;;;;;;5002319;28;20037;-66
2023/07/10 10:59:16;;;;;;;10.38;7.30;;;25.90;56.10;;;;;;5001528;28;20495;-66
2023/07/10 11:01:51;;;;;;;8.18;6.68;;;25.80;55.90;;;;;;4989784;28;20058;-65
2023/07/10 11:04:34;;;;;;;9.95;7.00;;;25.90;55.70;;;;;;4989580;28;20040;-66
2023/07/10 11:07:27;;;;;;;7.75;6.78;;;25.90;55.80;;;;;;5003855;28;20180;-66
2023/07/10 11:09:59;;;;;;;11.25;7.45;;;26.00;55.80;;;;;;5005239;28;20061;-66
2023/07/10 11:12:29;;;;;;;10.68;6.80;;;26.00;55.50;;;;;;4999247;28;20097;-67
2023/07/10 11:15:11;;;;;;;10.93;7.00;;;25.90;56.00;;;;;;4998784;28;20453;-66
2023/07/10 11:17:37;;;;;;;7.38;6.63;;;25.90;56.80;;;;;;5004735;28;20053;-66
2023/07/10 11:20:04;;;;;;;8.65;7.22;;;25.90;55.90;;;;;;4996074;28;20153;-65
2023/07/10 11:22:31;;;;;;;7.15;6.45;;;25.90;55.90;;;;;;4998770;28;20037;-65
2023/07/10 11:24:59;;;;;;;12.50;8.07;;;25.90;56.00;;;;;;4997815;28;20030;-66
2023/07/10 11:27:30;;;;;;;7.50;6.38;;;26.00;56.10;;;;;;5005494;28;20018;-65
2023/07/10 11:30:04;;;;;;;7.35;6.55;;;25.90;56.40;;;;;;4987715;28;20029;-66
2023/07/10 11:32:35;;;;;;;7.93;6.43;;;25.90;57.40;;;;;;5005766;28;20041;-66
2023/07/10 11:35:18;;;;;;;12.05;7.65;;;26.00;56.60;;;;;;5005110;28;20042;-66
2023/07/10 11:37:47;;;;;;;10.90;7.05;;;26.00;56.30;;;;;;4994720;28;20058;-66
2023/07/10 11:40:41;;;;;;;7.80;6.47;;;26.00;56.20;;;;;;5007673;28;20466;-66
2023/07/10 11:43:25;;;;;;;10.00;6.78;;;26.00;56.70;;;;;;4996340;28;20120;-66
2023/07/10 11:46:03;;;;;;;12.60;7.10;;;26.00;58.30;;;;;;4997704;28;20062;-65
2023/07/10 11:48:38;;;;;;;10.88;7.15;;;26.00;58.00;;;;;;5005078;28;20525;-66
2023/07/10 11:51:26;;;;;;;10.93;6.97;;;26.00;57.90;;;;;;4999601;28;20116;-67
2023/07/10 11:54:33;;;;;;;10.32;6.72;;;26.00;58.00;;;;;;5002750;28;20113;-66
2023/07/10 11:57:10;;;;;;;9.75;7.25;;;26.00;57.90;;;;;;4985951;28;20109;-66
2023/07/10 11:59:44;;;;;;;7.65;6.30;;;26.00;57.50;;;;;;4999975;28;20033;-67
2023/07/10 12:02:25;;;;;;;7.53;6.28;;;26.00;57.30;;;;;;5000920;28;20030;-66
2023/07/10 12:04:51;;;;;;;7.55;6.13;;;26.00;57.80;;;;;;4998730;28;20046;-66
2023/07/10 12:07:16;;;;;;;8.23;5.72;;;26.00;57.40;;;;;;4991844;28;20033;-67
2023/07/10 12:09:42;;;;;;;11.07;7.07;;;26.00;57.90;;;;;;4998010;28;20035;-66
2023/07/10 12:12:11;;;;;;;8.57;6.78;;;26.00;58.10;;;;;;4994400;28;20065;-66
2023/07/10 12:14:37;;;;;;;10.43;7.00;;;26.00;58.10;;;;;;4995759;28;20045;-66
2023/07/10 12:17:06;;;;;;;8.32;5.75;;;26.10;58.50;;;;;;4993746;28;20057;-65
2023/07/10 12:19:35;;;;;;;8.70;5.80;;;26.10;58.30;;;;;;4995916;28;20562;-67
2023/07/10 12:22:02;;;;;;;8.88;6.22;;;26.10;58.60;;;;;;4994896;28;20367;-67
2023/07/10 12:24:28;;;;;;;10.00;5.93;;;26.10;58.10;;;;;;4994638;28;20038;-64
2023/07/10 12:26:54;;;;;;;9.93;5.78;;;26.10;57.90;;;;;;4996739;28;20038;-67
2023/07/10 12:29:20;;;;;;;9.88;5.78;;;26.10;58.40;;;;;;5004628;28;20500;-67
2023/07/10 12:31:46;;;;;;;9.48;5.65;;;26.10;58.10;;;;;;4997847;28;20083;-66
2023/07/10 12:34:30;;;;;;;8.00;6.30;;;26.10;58.40;;;;;;4988306;28;20057;-69
2023/07/10 12:36:58;;;;;;;9.52;6.47;;;26.10;57.70;;;;;;4997107;28;20553;-66
2023/07/10 12:39:24;;;;;;;11.07;5.75;;;26.10;58.40;;;;;;4995381;28;20033;-66
2023/07/10 12:41:55;;;;;;;9.27;6.40;;;26.10;58.30;;;;;;4995971;28;20038;-66
2023/07/10 12:44:26;;;;;;;8.90;6.03;;;26.10;58.20;;;;;;4989552;28;20057;-66
2023/07/10 12:47:04;;;;;;;8.98;5.97;;;26.10;59.10;;;;;;4997773;28;20058;-67
2023/07/10 12:49:31;;;;;;;6.93;6.13;;;26.20;58.50;;;;;;4986801;28;20093;-67
2023/07/10 12:51:59;;;;;;;11.68;7.03;;;26.20;59.00;;;;;;5000360;28;20030;-67
2023/07/10 12:54:32;;;;;;;9.27;5.82;;;26.20;58.70;;;;;;4999450;28;20064;-67
2023/07/10 12:56:58;;;;;;;9.95;6.00;;;26.20;58.30;;;;;;4995654;28;20496;-66